Time;durP1;ratioP1;P1;durP2;ratioP2;P2;SDS_P1;SDS_P2;PMS_P1;PMS_P2;Temp;Humidity;BMP_temperature;BMP_pressure;BME280_temperature;BME280_humidity;BME280_pressure;Samples;Min_cycle;Max_cycle;Signal;HPM_P1;HPM_P2
2022/08/18 00:00:11;;;;;;;17.70;14.40;;;;;;;20.26;76.59;98304.34;219811;1276;22707;-83
2022/08/18 00:05:24;;;;;;;18.10;14.50;;;;;;;20.26;76.80;98313.12;219793;1276;25361;-79
2022/08/18 00:11:25;;;;;;;26.00;15.70;;;;;;;20.24;77.03;98318.38;219785;1276;25402;-79
2022/08/18 00:17:13;;;;;;;17.50;14.20;;;;;;;20.22;77.29;98321.30;219735;1276;22557;-79
2022/08/18 00:23:08;;;;;;;19.00;15.60;;;;;;;20.19;77.59;98310.45;208192;1276;1016323;-79
2022/08/18 00:29:08;;;;;;;21.00;14.80;;;;;;;20.15;77.56;98304.64;219929;1276;22560;-80
2022/08/18 00:34:47;;;;;;;18.80;16.10;;;;;;;20.11;78.02;98298.83;218218;1276;1004176;-80
2022/08/18 00:41:20;;;;;;;18.60;15.30;;;;;;;20.05;78.17;98302.30;219997;1276;23219;-79
2022/08/18 00:47:08;;;;;;;18.70;15.40;;;;;;;20.03;78.31;98305.30;219924;1276;22556;-80
2022/08/18 00:53:08;;;;;;;22.10;15.90;;;;;;;19.96;78.67;98303.80;219894;1276;24256;-80
2022/08/18 00:59:56;;;;;;;17.90;15.60;;;;;;;19.90;78.93;98301.58;219085;1282;25446;-79
2022/08/18 01:12:20;;;;;;;20.90;16.40;;;;;;;19.79;79.42;98296.70;218981;1282;24399;-80
2022/08/18 01:31:28;;;;;;;19.60;15.20;;;;;;;19.73;80.36;98281.30;216453;1279;1004404;-81
2022/08/18 01:44:26;;;;;;;;;;;;;;;;;;;;;
2022/08/18 01:51:01;;;;;;;21.20;16.00;;;;;;;19.69;81.26;98250.87;219790;1276;22612;-78
2022/08/18 01:57:03;;;;;;;24.50;18.00;;;;;;;19.64;81.25;98251.58;157202;1276;1016408;-79
2022/08/18 02:03:05;;;;;;;;;;;;;;;;;;;;;
2022/08/18 02:09:16;;;;;;;23.50;16.40;;;;;;;19.53;81.71;98251.23;139791;1276;1005918;-78
2022/08/18 02:14:57;;;;;;;20.80;18.30;;;;;;;19.50;82.03;98259.31;109736;1276;1016549;-79
2022/08/18 02:20:55;;;;;;;19.50;17.20;;;;;;;19.47;81.95;98262.36;109773;1279;1016577;-79
2022/08/18 02:27:14;;;;;;;;;;;;;;;;;;;;;
2022/08/18 02:33:47;;;;;;;23.70;16.80;;;;;;;19.37;82.43;98264.51;109798;1276;1018915;-79
2022/08/18 02:39:29;;;;;;;;;;;;;;;;;;;;;
2022/08/18 02:45:58;;;;;;;21.20;18.30;;;;;;;19.29;82.59;98278.40;109698;1277;1016713;-79
2022/08/18 02:52:00;;;;;;;;;;;;;;;;;;;;;
2022/08/18 02:58:43;;;;;;;27.70;20.10;;;;;;;19.22;82.92;98283.76;109415;1279;1016705;-79
2022/08/18 03:05:30;;;;;;;26.20;21.00;;;;;;;19.18;83.10;98284.54;109643;1278;1019192;-79
2022/08/18 03:11:54;;;;;;;27.50;20.60;;;;;;;19.14;83.19;98285.09;109461;1280;1018834;-78
2022/08/18 03:24:50;;;;;;;26.80;20.40;;;;;;;19.07;83.43;98288.04;109395;1281;1017239;-78
2022/08/18 03:30:54;;;;;;;26.50;20.30;;;;;;;19.02;83.58;98288.79;182883;1278;1016464;-79
2022/08/18 03:37:40;;;;;;;26.40;21.40;;;;;;;18.96;83.77;98290.32;209275;1277;2001903;-80
2022/08/18 03:44:05;;;;;;;;;;;;;;;;;;;;;
2022/08/18 03:50:30;;;;;;;;;;;;;;;;;;;;;
2022/08/18 03:56:49;;;;;;;20.70;17.20;;;;;;;18.82;84.21;98292.63;109403;1281;1019481;-79
2022/08/18 04:03:27;;;;;;;17.50;14.20;;;;;;;18.79;84.22;98286.74;109366;1281;1017087;-79
2022/08/18 04:09:21;;;;;;;21.80;17.70;;;;;;;18.84;84.71;98290.41;157097;1279;2002532;-78
2022/08/18 04:15:27;;;;;;;25.60;18.70;;;;;;;18.89;84.63;98297.14;147775;1280;1016618;-79
2022/08/18 04:21:14;;;;;;;23.50;18.50;;;;;;;18.99;84.85;98302.70;109492;1282;1016578;-79
2022/08/18 04:27:11;;;;;;;25.20;19.80;;;;;;;19.11;84.97;98303.49;109346;1283;1015909;-79
2022/08/18 04:32:33;;;;;;;26.80;20.20;;;;;;;19.23;85.02;98302.35;109406;1281;1016818;-79
2022/08/18 04:38:32;;;;;;;24.90;20.90;;;;;;;19.37;85.00;98307.34;109317;1284;1016527;-79
2022/08/18 04:44:20;;;;;;;25.50;20.60;;;;;;;19.52;85.06;98309.40;109193;1284;1018404;-79
2022/08/18 04:49:49;;;;;;;23.60;19.30;;;;;;;19.73;85.06;98304.35;109123;1281;1016690;-79
2022/08/18 04:55:19;;;;;;;21.40;18.30;;;;;;;19.88;84.78;98305.59;109433;1281;1016721;-79
2022/08/18 05:00:43;;;;;;;19.00;16.70;;;;;;;20.05;85.01;98310.92;109317;1280;1016647;-79
2022/08/18 05:06:31;;;;;;;;;;;;;;;20.28;85.09;98308.49;109562;1279;1016439;-78
2022/08/18 05:11:58;;;;;;;22.40;18.70;;;;;;;20.48;85.03;98309.34;109603;1280;1018675;-79
2022/08/18 05:17:09;;;;;;;24.40;21.30;;;;;;;20.66;85.05;98312.48;109761;1279;1017609;-78
2022/08/18 05:22:42;;;;;;;19.20;16.40;;;;;;;20.84;84.74;98312.69;109441;1282;1016654;-78
2022/08/18 05:27:47;;;;;;;23.80;19.10;;;;;;;21.03;84.54;98304.23;109489;1278;1016537;-79
2022/08/18 05:33:34;;;;;;;25.20;20.50;;;;;;;21.22;84.32;98303.91;109764;1277;1018792;-78
2022/08/18 05:39:10;;;;;;;21.00;18.80;;;;;;;21.38;84.09;98298.95;109802;1277;1016681;-79
2022/08/18 05:44:27;;;;;;;23.70;19.90;;;;;;;21.55;83.91;98302.59;109877;1277;1018874;-78
2022/08/18 05:50:10;;;;;;;;;;;;;;;;;;;;;
2022/08/18 06:01:51;;;;;;;25.60;20.60;;;;;;;22.01;83.14;98304.67;110452;1277;1016736;-83
2022/08/18 06:07:17;;;;;;;24.30;20.50;;;;;;;22.21;82.80;98307.34;110013;1276;1018597;-77
2022/08/18 06:12:36;;;;;;;24.80;20.40;;;;;;;22.38;82.30;98316.61;110167;1277;1016670;-77
2022/08/18 06:18:30;;;;;;;21.50;19.10;;;;;;;22.57;82.00;98328.82;110081;1277;1016323;-80
2022/08/18 06:24:27;;;;;;;22.50;19.60;;;;;;;22.74;81.16;98334.09;110093;1277;1016481;-79
2022/08/18 06:29:52;;;;;;;17.70;15.80;;;;;;;22.85;80.72;98336.17;109947;1277;1017192;-78
2022/08/18 06:35:24;;;;;;;21.50;19.10;;;;;;;22.99;80.66;98337.52;109832;1276;1016604;-77
2022/08/18 06:40:31;;;;;;;21.60;18.50;;;;;;;23.14;80.35;98337.76;110110;1276;1016661;-77
2022/08/18 06:45:46;;;;;;;21.70;18.50;;;;;;;23.39;80.02;98343.41;109887;1277;1018037;-78
2022/08/18 06:51:14;;;;;;;20.50;17.90;;;;;;;23.59;79.49;98346.60;109714;1279;1017416;-77
2022/08/18 06:56:56;;;;;;;21.20;18.50;;;;;;;23.82;78.98;98350.50;109845;1276;1016925;-78
2022/08/18 07:02:01;;;;;;;21.10;18.30;;;;;;;24.12;78.75;98349.31;109847;1277;1016756;-77
2022/08/18 07:07:49;;;;;;;;;;;;;;;;;;;;;
2022/08/18 07:13:36;;;;;;;17.20;15.50;;;;;;;24.67;76.94;98356.99;110087;1278;1016758;-78
2022/08/18 07:18:39;;;;;;;18.60;16.70;;;;;;;24.88;75.68;98359.08;109793;1277;1018212;-77
2022/08/18 07:24:20;;;;;;;17.90;16.10;;;;;;;25.07;75.37;98353.16;109798;1278;1016561;-81
2022/08/18 07:29:33;;;;;;;17.90;16.00;;;;;;;25.36;74.23;98355.97;109997;1277;1018496;-78
2022/08/18 07:34:44;;;;;;;18.50;16.60;;;;;;;25.56;73.15;98347.36;109948;1278;1016762;-77
2022/08/18 07:40:02;;;;;;;16.00;14.40;;;;;;;25.71;71.94;98345.15;109944;1277;1016707;-79
2022/08/18 07:45:16;;;;;;;16.60;15.00;;;;;;;25.83;71.38;98343.66;110001;1278;1017410;-77
2022/08/18 07:50:27;;;;;;;15.20;13.70;;;;;;;26.05;70.40;98345.90;109950;1277;1017242;-78
2022/08/18 07:56:38;;;;;;;16.20;13.60;;;;;;;26.35;69.85;98344.04;109921;1277;1017311;-80
2022/08/18 08:02:11;;;;;;;14.10;11.90;;;;;;;26.76;68.77;98346.52;109948;1277;1016500;-80
2022/08/18 08:07:25;;;;;;;12.50;11.40;;;;;;;27.15;67.46;98354.42;110038;1277;1016282;-79
2022/08/18 08:13:04;;;;;;;13.50;12.10;;;;;;;27.46;65.94;98359.34;109813;1277;1016547;-81
2022/08/18 08:18:54;;;;;;;13.60;12.20;;;;;;;27.82;64.89;98368.13;109822;1281;1017329;-80
2022/08/18 08:24:33;;;;;;;12.90;11.70;;;;;;;28.12;63.60;98368.28;109343;1284;1016967;-80
2022/08/18 08:30:14;;;;;;;12.70;11.40;;;;;;;28.28;62.31;98363.31;109877;1278;1016311;-80
2022/08/18 08:36:01;;;;;;;14.90;12.40;;;;;;;28.36;61.60;98366.66;109848;1277;1016650;-78
2022/08/18 08:41:10;;;;;;;12.00;10.80;;;;;;;28.56;61.04;98370.02;109772;1278;1016246;-76
2022/08/18 08:46:22;;;;;;;13.20;11.20;;;;;;;28.73;59.84;98374.33;110001;1278;1016640;-77
2022/08/18 08:51:41;;;;;;;13.10;11.70;;;;;;;28.83;59.07;98386.11;109816;1277;1018503;-77
2022/08/18 08:56:54;;;;;;;12.90;11.50;;;;;;;28.91;58.89;98390.22;109860;1277;1018066;-77
2022/08/18 09:02:09;;;;;;;12.70;9.40;;;;;;;29.01;58.36;98388.75;109972;1277;1016797;-77
2022/08/18 09:08:01;;;;;;;11.10;10.00;;;;;;;29.08;57.73;98395.02;110077;1277;1017442;-76
2022/08/18 09:13:13;;;;;;;15.20;12.30;;;;;;;29.24;57.31;98395.77;109777;1277;1016624;-76
2022/08/18 09:18:46;;;;;;;12.50;11.30;;;;;;;29.37;57.06;98395.36;110031;1276;1017272;-75
2022/08/18 09:23:52;;;;;;;12.00;10.90;;;;;;;29.52;56.52;98387.27;109664;1279;1016236;-76
2022/08/18 09:29:12;;;;;;;12.30;11.10;;;;;;;29.62;55.62;98383.59;110018;1276;1017234;-77
2022/08/18 09:34:37;;;;;;;12.70;11.50;;;;;;;29.76;55.33;98383.98;109972;1277;1016860;-77
2022/08/18 09:45:54;;;;;;;13.00;11.60;;;;;;;29.94;54.06;98385.61;109745;1276;1017695;-76
2022/08/18 09:51:23;;;;;;;12.70;10.70;;;;;;;30.03;53.33;98381.59;109883;1277;1018296;-76
2022/08/18 09:56:57;;;;;;;12.90;11.10;;;;;;;30.13;53.02;98372.28;110109;1276;1016495;-77
2022/08/18 10:02:34;;;;;;;13.20;11.90;;;;;;;30.36;52.88;98363.77;109888;1277;1016701;-76
2022/08/18 10:08:05;;;;;;;12.10;10.70;;;;;;;30.46;52.38;98357.79;109942;1277;1016741;-76
2022/08/18 10:14:25;;;;;;;11.50;10.40;;;;;;;30.50;51.64;98356.27;109855;1277;1017705;-77
2022/08/18 10:19:50;;;;;;;12.00;10.60;;;;;;;30.45;51.37;98342.02;110047;1277;1018032;-76
2022/08/18 10:24:58;;;;;;;12.30;10.80;;;;;;;30.55;50.97;98331.34;109910;1276;1016678;-76
2022/08/18 10:30:33;;;;;;;9.60;8.70;;;;;;;30.69;50.51;98332.27;110041;1277;1016512;-76
2022/08/18 10:36:00;;;;;;;13.40;11.10;;;;;;;30.86;50.01;98317.35;110092;1277;1016521;-77
2022/08/18 10:41:18;;;;;;;11.60;10.40;;;;;;;31.01;49.68;98311.98;110052;1277;1019903;-77
2022/08/18 10:46:31;;;;;;;11.90;10.80;;;;;;;31.13;49.31;98300.91;109747;1277;1018482;-77
2022/08/18 10:52:02;;;;;;;12.10;11.00;;;;;;;31.25;48.53;98293.50;110042;1277;1020656;-77
2022/08/18 10:58:05;;;;;;;11.50;10.50;;;;;;;31.30;47.72;98293.54;110043;1276;1017302;-78
2022/08/18 11:03:58;;;;;;;11.50;9.80;;;;;;;31.38;47.52;98289.48;110033;1277;1016066;-77
2022/08/18 11:09:25;;;;;;;11.50;9.50;;;;;;;31.51;46.96;98282.39;109873;1276;1018065;-77
2022/08/18 11:14:56;;;;;;;10.90;9.80;;;;;;;31.55;46.81;98280.05;109810;1276;1016408;-78
2022/08/18 11:20:04;;;;;;;11.40;10.00;;;;;;;31.69;46.48;98276.89;109845;1278;1018198;-77
2022/08/18 11:25:38;;;;;;;10.70;9.50;;;;;;;31.86;45.90;98265.02;109932;1277;1017318;-77
2022/08/18 11:30:47;;;;;;;11.70;10.00;;;;;;;31.93;45.53;98259.90;109846;1277;1017317;-78
2022/08/18 11:36:07;;;;;;;10.80;9.80;;;;;;;32.01;45.94;98255.37;110220;1277;1016667;-78
2022/08/18 11:41:14;;;;;;;11.90;9.20;;;;;;;32.05;45.37;98246.36;110190;1277;1016161;-77
2022/08/18 11:46:37;;;;;;;11.70;9.40;;;;;;;32.23;44.95;98242.06;110044;1277;1016634;-76
2022/08/18 11:52:01;;;;;;;11.30;9.70;;;;;;;32.37;44.49;98248.15;109930;1277;1018392;-80
2022/08/18 11:57:53;;;;;;;11.10;10.00;;;;;;;32.42;44.48;98244.18;110014;1276;1016483;-77
2022/08/18 12:03:07;;;;;;;11.50;10.40;;;;;;;32.42;44.44;98237.51;109716;1277;1016513;-77
2022/08/18 12:08:36;;;;;;;12.50;9.70;;;;;;;32.49;44.53;98234.11;109974;1277;1016763;-76
2022/08/18 12:14:03;;;;;;;11.20;10.10;;;;;;;32.52;44.40;98225.51;109988;1277;1016653;-76
2022/08/18 12:19:31;;;;;;;11.60;10.40;;;;;;;32.51;43.99;98225.27;109945;1277;1016830;-76
2022/08/18 12:24:35;;;;;;;9.50;8.60;;;;;;;32.54;43.30;98219.98;110110;1276;1016488;-76
2022/08/18 12:29:42;;;;;;;8.80;8.00;;;;;;;32.71;42.54;98216.39;110143;1276;1016385;-76
2022/08/18 12:34:45;;;;;;;10.40;9.50;;;;;;;32.79;42.41;98210.50;109979;1276;1016195;-75
2022/08/18 12:39:47;;;;;;;11.60;9.70;;;;;;;32.88;41.65;98204.77;109964;1277;1018029;-76
2022/08/18 12:44:52;;;;;;;10.40;9.40;;;;;;;32.94;41.94;98200.10;110042;1276;1016031;-76
2022/08/18 12:49:54;;;;;;;11.00;8.10;;;;;;;33.02;41.44;98209.40;110074;1276;1016800;-76
2022/08/18 12:54:56;;;;;;;9.70;8.70;;;;;;;32.87;40.95;98220.49;110072;1276;1018230;-75
2022/08/18 13:00:01;;;;;;;13.40;9.00;;;;;;;32.84;41.09;98226.92;109998;1276;1016579;-76
2022/08/18 13:05:05;;;;;;;10.40;9.40;;;;;;;32.90;40.93;98231.45;109980;1277;1016847;-76
2022/08/18 13:10:10;;;;;;;10.80;8.30;;;;;;;32.99;40.60;98239.77;110025;1274;1016091;-77
2022/08/18 13:15:36;;;;;;;11.70;10.20;;;;;;;33.08;39.76;98239.35;109721;1277;1016423;-77
2022/08/18 13:20:40;;;;;;;8.60;7.90;;;;;;;33.13;39.76;98230.30;109739;1277;1017774;-76
2022/08/18 13:25:45;;;;;;;8.70;7.90;;;;;;;33.14;39.34;98234.29;109911;1278;1016305;-76
2022/08/18 13:30:49;;;;;;;8.20;7.50;;;;;;;33.22;39.10;98241.30;109962;1276;1017850;-76
2022/08/18 13:35:52;;;;;;;9.90;8.70;;;;;;;33.21;39.08;98237.67;109814;1276;1017551;-78
2022/08/18 13:41:03;;;;;;;8.90;8.10;;;;;;;33.21;38.90;98243.21;109858;1276;1016679;-76
2022/08/18 13:46:10;;;;;;;7.90;7.20;;;;;;;33.26;38.42;98244.95;108988;1276;2309800;-78
2022/08/18 13:51:22;;;;;;;11.90;10.80;;;;;;;33.20;38.29;98236.60;110195;1276;1016366;-77
2022/08/18 13:56:24;;;;;;;8.50;7.70;;;;;;;33.22;38.15;98240.66;109814;1276;1016566;-79
2022/08/18 14:01:32;;;;;;;;;;;;;;;33.24;38.04;98233.52;109984;1276;1016693;-76
2022/08/18 14:06:55;;;;;;;7.80;6.90;;;;;;;33.27;37.97;98224.08;110140;1276;1016357;-76
2022/08/18 14:12:04;;;;;;;11.20;7.60;;;;;;;33.36;37.82;98228.73;109834;1276;1018908;-77
2022/08/18 14:17:09;;;;;;;7.90;7.10;;;;;;;33.42;37.60;98232.86;109876;1276;1016541;-77
2022/08/18 14:33:38;;;;;;;8.30;7.60;;;;;;;33.57;37.13;98203.95;110191;1276;1016483;-77
2022/08/18 14:39:23;;;;;;;9.80;7.70;;;;;;;33.73;37.05;98199.40;110208;1277;1016753;-77
2022/08/18 14:44:27;;;;;;;8.90;7.50;;;;;;;33.82;36.77;98190.73;109628;1279;1016280;-77
2022/08/18 14:49:34;;;;;;;8.30;7.50;;;;;;;33.85;37.21;98186.46;109725;1277;1016049;-78
2022/08/18 14:54:46;;;;;;;9.00;8.00;;;;;;;33.80;37.25;98196.92;109793;1277;1017481;-77
2022/08/18 14:59:54;;;;;;;9.20;8.30;;;;;;;33.67;37.09;98200.45;109972;1276;1018953;-78
2022/08/18 15:04:58;;;;;;;9.30;8.20;;;;;;;33.61;37.06;98198.87;109901;1276;1016809;-76
2022/08/18 15:10:01;;;;;;;9.10;8.00;;;;;;;33.53;37.21;98198.72;109973;1276;1015936;-76
2022/08/18 15:15:21;;;;;;;12.40;8.50;;;;;;;33.46;37.47;98205.40;109882;1277;1016349;-76
2022/08/18 15:20:28;;;;;;;8.00;7.30;;;;;;;33.46;37.24;98204.68;109855;1276;1016408;-77
2022/08/18 15:25:44;;;;;;;8.90;8.10;;;;;;;33.45;36.88;98204.75;109944;1276;1016420;-77
2022/08/18 15:30:50;;;;;;;11.00;8.80;;;;;;;33.43;37.23;98209.44;109882;1275;1016305;-77
2022/08/18 15:36:21;;;;;;;7.90;7.20;;;;;;;33.35;37.35;98213.38;110069;1277;1015958;-77
2022/08/18 15:41:40;;;;;;;9.10;8.20;;;;;;;33.32;37.10;98212.47;110161;1276;1016118;-77
2022/08/18 15:46:48;;;;;;;8.80;7.90;;;;;;;33.28;37.11;98215.58;109934;1279;1018598;-78
2022/08/18 15:51:54;;;;;;;9.10;7.90;;;;;;;33.17;37.07;98207.94;110165;1276;1016639;-78
2022/08/18 15:57:00;;;;;;;9.70;8.80;;;;;;;33.03;37.53;98210.88;110218;1276;1016667;-78
2022/08/18 16:02:07;;;;;;;8.80;7.90;;;;;;;32.81;38.18;98198.67;110259;1277;1016777;-78
2022/08/18 16:07:16;;;;;;;11.00;8.80;;;;;;;32.55;38.59;98200.02;110342;1276;1016724;-78
2022/08/18 16:12:26;;;;;;;11.00;9.40;;;;;;;32.29;38.81;98198.95;110437;1276;1016652;-77
2022/08/18 16:17:30;;;;;;;9.60;8.60;;;;;;;32.17;39.30;98197.06;110560;1276;1016473;-79
2022/08/18 16:22:37;;;;;;;10.00;8.50;;;;;;;32.07;39.05;98188.88;110614;1276;1016340;-79
2022/08/18 16:27:54;;;;;;;9.90;8.70;;;;;;;32.04;38.96;98185.05;110596;1276;1016814;-77
2022/08/18 16:33:06;;;;;;;9.00;8.10;;;;;;;31.91;38.93;98187.07;110318;1276;1017858;-78
2022/08/18 16:38:08;;;;;;;9.00;8.00;;;;;;;31.78;39.05;98199.77;110375;1276;1018651;-78
2022/08/18 16:43:14;;;;;;;8.60;7.80;;;;;;;31.66;39.32;98193.46;110406;1277;1016367;-78
2022/08/18 16:48:17;;;;;;;9.00;8.10;;;;;;;31.49;39.53;98179.52;110503;1276;1016586;-77
2022/08/18 16:53:26;;;;;;;9.70;8.20;;;;;;;31.27;39.90;98172.67;110623;1276;1016374;-79
2022/08/18 17:04:27;;;;;;;10.50;8.40;;;;;;;30.87;40.40;98154.27;110204;1276;1016500;-79
2022/08/18 17:09:46;;;;;;;9.80;8.20;;;;;;;30.64;40.63;98149.42;110205;1276;1016739;-78
2022/08/18 17:14:49;;;;;;;8.80;8.00;;;;;;;30.38;40.93;98153.30;110195;1276;1018605;-78
2022/08/18 17:19:58;;;;;;;9.00;7.90;;;;;;;30.12;41.44;98162.05;110137;1276;1016679;-79
2022/08/18 17:25:07;;;;;;;9.40;7.60;;;;;;;29.81;42.01;98164.16;109968;1279;1016507;-79
2022/08/18 17:30:18;;;;;;;8.40;7.30;;;;;;;29.49;42.19;98172.75;110201;1276;1016636;-80
2022/08/18 17:35:28;;;;;;;8.50;7.70;;;;;;;29.22;42.83;98170.52;110164;1277;1016498;-79
2022/08/18 17:40:38;;;;;;;9.50;7.30;;;;;;;29.00;43.14;98182.27;110360;1276;1015913;-80
2022/08/18 17:45:45;;;;;;;9.00;7.40;;;;;;;28.75;43.42;98190.90;110392;1276;1016686;-80
2022/08/18 17:57:30;;;;;;;8.80;7.90;;;;;;;28.17;44.37;98215.19;110344;1275;1016605;-79
2022/08/18 18:02:35;;;;;;;9.50;8.60;;;;;;;27.94;44.91;98212.44;110190;1275;1016933;-80
2022/08/18 18:07:56;;;;;;;8.40;7.50;;;;;;;27.73;45.46;98216.30;110156;1277;1016035;-79
2022/08/18 18:13:25;;;;;;;9.00;7.70;;;;;;;27.56;45.83;98217.27;109955;1276;1016585;-78
2022/08/18 18:19:01;;;;;;;13.70;8.50;;;;;;;27.43;46.41;98214.88;110053;1276;1016574;-80
2022/08/18 18:24:14;;;;;;;11.70;8.50;;;;;;;27.29;46.86;98210.02;110044;1276;1018585;-79
2022/08/18 18:29:28;;;;;;;12.10;9.20;;;;;;;27.10;47.50;98210.21;109984;1276;1016605;-80
2022/08/18 18:35:08;;;;;;;12.10;8.80;;;;;;;26.92;48.08;98205.73;109736;1276;1019135;-79
2022/08/18 18:40:53;;;;;;;9.70;8.30;;;;;;;26.70;48.71;98202.30;109810;1279;1016618;-79
2022/08/18 18:46:18;;;;;;;11.30;9.00;;;;;;;26.47;49.81;98197.38;109916;1276;1016046;-78
2022/08/18 18:51:56;;;;;;;12.00;9.50;;;;;;;26.28;50.46;98183.00;109904;1276;1016599;-79
2022/08/18 18:57:42;;;;;;;11.00;9.90;;;;;;;26.04;51.36;98164.79;109992;1277;1017774;-80
2022/08/18 19:03:02;;;;;;;11.90;10.10;;;;;;;25.78;52.20;98150.75;109652;1278;1018952;-79
2022/08/18 19:08:38;;;;;;;10.00;8.90;;;;;;;25.62;52.98;98138.12;109829;1277;1018209;-82
2022/08/18 19:13:59;;;;;;;12.80;9.10;;;;;;;25.51;53.66;98130.60;109884;1277;1017175;-79
2022/08/18 19:19:11;;;;;;;10.50;9.00;;;;;;;25.36;53.84;98129.54;109854;1275;1016412;-80
2022/08/18 19:24:56;;;;;;;12.10;9.40;;;;;;;25.18;54.41;98143.98;109885;1276;1017785;-83
2022/08/18 19:30:20;;;;;;;12.00;10.20;;;;;;;25.04;55.02;98142.59;109627;1279;1016423;-79
2022/08/18 19:35:44;;;;;;;10.70;8.80;;;;;;;24.92;55.61;98135.31;109551;1279;1019739;-79
2022/08/18 19:41:15;;;;;;;9.60;8.70;;;;;;;24.78;56.26;98135.38;109622;1280;1016700;-80
2022/08/18 19:46:38;;;;;;;12.60;9.60;;;;;;;24.68;56.66;98137.38;109660;1280;1016620;-79
2022/08/18 19:51:46;;;;;;;13.40;10.40;;;;;;;24.58;57.08;98133.33;109597;1280;1018949;-79
2022/08/18 19:57:22;;;;;;;12.70;9.80;;;;;;;24.49;57.62;98120.15;109654;1281;1016317;-79
2022/08/18 20:02:33;;;;;;;11.40;10.10;;;;;;;24.40;58.07;98117.84;109962;1276;1016406;-80
2022/08/18 20:08:07;;;;;;;16.30;10.80;;;;;;;24.30;58.30;98115.77;109986;1276;1016684;-78
2022/08/18 20:13:32;;;;;;;13.40;9.40;;;;;;;24.18;58.70;98108.93;109963;1276;1018742;-79
2022/08/18 20:18:37;;;;;;;12.80;9.70;;;;;;;24.10;59.34;98097.00;109899;1276;1017470;-78
2022/08/18 20:24:03;;;;;;;12.90;9.60;;;;;;;24.08;59.56;98095.35;109816;1279;1016557;-78
2022/08/18 20:29:11;;;;;;;11.40;10.30;;;;;;;24.03;59.91;98084.83;109907;1276;1016424;-79
2022/08/18 20:34:23;;;;;;;10.20;8.70;;;;;;;24.00;60.17;98075.21;109870;1277;1017335;-78
2022/08/18 20:39:54;;;;;;;14.30;9.60;;;;;;;23.98;60.38;98072.09;109984;1276;1016759;-79
2022/08/18 20:45:21;;;;;;;10.90;8.40;;;;;;;23.93;60.57;98069.53;109982;1276;1016296;-82
2022/08/18 20:50:56;;;;;;;9.00;7.80;;;;;;;23.92;60.86;98067.66;109840;1276;1017193;-79
2022/08/18 20:56:47;;;;;;;9.40;7.90;;;;;;;23.93;60.71;98078.58;109929;1277;1016535;-79
2022/08/18 21:01:58;;;;;;;9.70;7.40;;;;;;;23.91;60.85;98062.11;109507;1276;1018239;-79
2022/08/18 21:07:34;;;;;;;9.80;8.30;;;;;;;23.89;60.98;98068.67;109942;1276;1016688;-79
2022/08/18 21:12:56;;;;;;;9.70;7.90;;;;;;;23.88;60.88;98073.21;109790;1276;1016129;-79
2022/08/18 21:18:19;;;;;;;9.40;7.70;;;;;;;23.84;60.97;98080.77;109799;1276;1017211;-79
2022/08/18 21:23:32;;;;;;;9.00;8.10;;;;;;;23.77;61.21;98080.92;110006;1276;1018390;-79
2022/08/18 21:28:38;;;;;;;8.60;7.10;;;;;;;23.70;61.34;98092.20;109980;1277;1017357;-79
2022/08/18 21:33:49;;;;;;;12.20;7.50;;;;;;;23.65;61.47;98089.86;109855;1277;1016581;-78
2022/08/18 21:38:59;;;;;;;8.70;7.70;;;;;;;23.65;61.64;98087.61;109770;1276;1016954;-79
2022/08/18 21:44:53;;;;;;;9.70;7.40;;;;;;;23.60;61.77;98082.84;109935;1276;1016585;-78
2022/08/18 21:50:26;;;;;;;8.90;7.10;;;;;;;23.55;62.06;98077.70;110036;1276;1016548;-79
2022/08/18 21:55:44;;;;;;;8.60;7.00;;;;;;;23.58;62.21;98081.67;109845;1276;1016765;-79
2022/08/18 22:01:34;;;;;;;9.40;7.50;;;;;;;23.60;62.50;98082.06;109913;1276;1017144;-79
2022/08/18 22:06:59;;;;;;;7.80;6.90;;;;;;;23.59;62.22;98081.83;109951;1280;1017318;-79
2022/08/18 22:18:21;;;;;;;8.70;6.90;;;;;;;23.61;62.65;98079.95;109745;1279;1016416;-79
2022/08/18 22:29:26;;;;;;;8.30;7.40;;;;;;;23.62;62.49;98093.77;109815;1279;1016561;-80
2022/08/18 22:34:31;;;;;;;9.10;7.00;;;;;;;23.57;62.54;98099.64;109805;1279;1016924;-79
2022/08/18 22:39:39;;;;;;;8.70;6.80;;;;;;;23.49;62.65;98105.34;109899;1276;1018114;-79
2022/08/18 22:44:47;;;;;;;8.40;7.00;;;;;;;23.44;62.96;98105.35;109858;1276;1016582;-80
2022/08/18 22:49:59;;;;;;;8.80;7.60;;;;;;;23.36;63.03;98104.02;109907;1276;1018342;-79
2022/08/18 22:55:11;;;;;;;8.10;7.10;;;;;;;23.32;63.46;98106.83;110109;1276;1016215;-79
2022/08/18 23:00:18;;;;;;;8.80;7.90;;;;;;;23.30;63.53;98108.46;109893;1276;1016393;-78
2022/08/18 23:05:23;;;;;;;9.20;7.60;;;;;;;23.31;63.79;98111.83;109966;1277;1016383;-80
2022/08/18 23:10:26;;;;;;;9.60;7.60;;;;;;;23.31;63.67;98105.82;109945;1277;1016670;-78
2022/08/18 23:15:42;;;;;;;11.20;7.50;;;;;;;23.25;63.70;98107.84;109739;1279;1016445;-79
2022/08/18 23:20:53;;;;;;;9.00;8.10;;;;;;;23.18;63.95;98108.23;109647;1279;1016482;-79
2022/08/18 23:25:59;;;;;;;11.60;7.70;;;;;;;23.11;63.93;98110.86;109784;1277;1016418;-78
2022/08/18 23:31:01;;;;;;;10.20;8.30;;;;;;;23.02;64.27;98104.35;109804;1278;1016287;-80
2022/08/18 23:36:08;;;;;;;8.80;7.20;;;;;;;22.93;64.43;98098.88;109772;1277;1016999;-80
2022/08/18 23:41:17;;;;;;;8.70;7.60;;;;;;;22.87;64.81;98097.45;109845;1277;1017236;-78
2022/08/18 23:47:17;;;;;;;;;;;;;;;;;;;;;
2022/08/18 23:52:47;;;;;;;8.60;7.70;;;;;;;22.63;65.20;98091.02;109778;1277;1016461;-78
2022/08/18 23:58:11;;;;;;;9.80;8.00;;;;;;;22.50;65.63;98086.05;109858;1276;1017044;-79
